Flight Track Log - Related Links

Times and Time Zones

All times are in EDT time to prevent confusion due to time zone crossing. See the SWA598 flight status page for this flight to view local times or setup timezone preferences in your user account.

Time Position Orientation Groundspeed Altitude Reporting Facility
EDT Latitude Longitude Course Direction KTS MPH feet Rate Location/Type
Mon 08:18:44 AM 29.6333 -95.2653 13° North 142 163 800  Level Houston Center
Mon 08:20:03 AM 29.6867 -95.2517 13° North 229 264 3,300 1,696 Climbing Houston Center
Mon 08:20:16 AM 29.6958 -95.2511 North 227 261 3,400 2,676 Climbing Houston Center
Mon 08:21:17 AM 29.7728 -95.2589 355° North 268 308 6,600 3,610 Climbing Houston Center
Mon 08:22:19 AM 29.8514 -95.2622 358° North 278 320 10,800 3,276 Climbing Houston Center
Mon 08:24:22 AM 30.0306 -95.2894 353° North 347 399 16,700 2,739 Climbing Houston Center
Mon 08:25:23 AM 30.1131 -95.3483 328° Northwest 348 400 19,200 3,024 Climbing Houston Center
Mon 08:26:25 AM 30.2183 -95.4233 328° Northwest 366 421 22,900 2,129 Climbing Houston Center
Mon 08:27:27 AM 30.3072 -95.4875 328° Northwest 371 427 23,600 1,415 Climbing Houston Center
Mon 08:28:28 AM 30.3975 -95.5531 328° Northwest 377 434 25,800 1,463 Climbing Houston Center
Mon 08:29:30 AM 30.4919 -95.6217 328° Northwest 397 457 26,600 1,902 Climbing Houston Center
Mon 08:30:31 AM 30.5858 -95.6797 332° Northwest 388 447 29,700 2,439 Climbing Houston Center
Mon 08:31:33 AM 30.6833 -95.7308 336° Northwest 383 441 31,600 1,645 Climbing Houston Center
Mon 08:32:35 AM 30.8039 -95.7953 335° Northwest 405 466 33,100 1,452 Climbing Houston Center
Mon 08:33:37 AM 30.9103 -95.8525 335° Northwest 414 476 34,600 1,561 Climbing Houston Center
Mon 08:34:38 AM 31.0183 -95.9108 335° Northwest 422 486 36,300 1,707 Climbing Houston Center
Mon 08:35:40 AM 31.1244 -95.9681 335° Northwest 422 486 38,100 1,790 Climbing Houston Center
Mon 08:36:42 AM 31.2328 -96.0106 341° North 416 479 40,000 919 Climbing Houston Center
Mon 08:37:44 AM 31.3389 -96.0519 342° North 408 470 40,000  Level Houston Center
Mon 08:38:45 AM 31.4453 -96.0928 342° North 406 467 40,000  Level Houston Center
Mon 08:39:47 AM 31.5708 -96.1417 342° North 406 467 40,000  Level Houston Center
Mon 08:40:49 AM 31.6753 -96.1831 341° North 402 463 40,000  Level Houston Center
Mon 08:41:51 AM 31.7811 -96.2244 342° North 400 460 40,000  Level Houston Center
Mon 08:42:42 AM 31.8678 -96.2583 342° North 396 456 40,000  Level Fort Worth Center
Mon 08:43:44 AM 31.9719 -96.2967 343° North 394 453 40,000  Level Fort Worth Center
Mon 08:44:45 AM 32.0833 -96.3411 341° North 394 453 40,000  Level Fort Worth Center
Mon 08:45:47 AM 32.1794 -96.3803 341° North 394 453 40,000  Level Fort Worth Center
Mon 08:46:49 AM 32.2672 -96.4719 319° Northwest 352 405 40,000  Level Fort Worth Center
Mon 08:47:51 AM 32.3383 -96.5525 316° Northwest 350 403 40,000  Level Fort Worth Center
Mon 08:48:52 AM 32.4097 -96.6325 317° Northwest 352 405 40,000  Level Fort Worth Center
Mon 08:49:54 AM 32.4817 -96.7139 316° Northwest 357 411 40,000  Level Fort Worth Center
Mon 08:50:56 AM 32.5533 -96.7950 316° Northwest 357 411 40,000  Level Fort Worth Center
Mon 08:51:58 AM 32.6253 -96.8778 316° Northwest 357 411 40,000  Level Fort Worth Center
Mon 08:53:00 AM 32.7006 -96.9550 319° Northwest 357 411 40,000  Level Fort Worth Center
Mon 08:54:01 AM 32.7967 -97.0428 322° Northwest 362 417 40,000  Level Fort Worth Center
Mon 08:55:03 AM 32.8747 -97.1158 322° Northwest 362 417 40,000  Level Fort Worth Center
Mon 08:56:05 AM 32.9489 -97.1853 322° Northwest 367 422 40,000  Level Fort Worth Center
Mon 08:57:07 AM 33.0458 -97.2756 322° Northwest 368 423 40,000  Level Fort Worth Center
Mon 08:58:09 AM 33.1244 -97.3503 321° Northwest 365 420 40,000  Level Fort Worth Center
Mon 08:59:11 AM 33.2042 -97.4256 322° Northwest 365 420 40,000  Level Fort Worth Center
Mon 09:00:13 AM 33.2842 -97.5008 322° Northwest 365 420 40,000  Level Fort Worth Center
Mon 09:01:15 AM 33.3650 -97.5767 322° Northwest 366 421 40,000  Level Fort Worth Center
Mon 09:02:17 AM 33.4450 -97.6536 321° Northwest 369 425 40,000  Level Fort Worth Center
Mon 09:03:19 AM 33.5425 -97.7456 322° Northwest 370 426 40,000  Level Fort Worth Center
Mon 09:04:21 AM 33.6233 -97.8225 322° Northwest 370 426 40,000  Level Fort Worth Center
Mon 09:05:23 AM 33.7028 -97.9000 321° Northwest 370 426 40,000  Level Fort Worth Center
Mon 09:06:24 AM 33.7825 -97.9769 321° Northwest 370 426 40,000  Level Fort Worth Center
Mon 09:07:26 AM 33.8622 -98.0522 322° Northwest 368 423 40,000  Level Fort Worth Center
Mon 09:08:28 AM 33.9419 -98.1294 321° Northwest 368 423 40,000  Level Fort Worth Center
Mon 09:09:30 AM 34.0217 -98.2061 321° Northwest 368 423 40,000  Level Fort Worth Center
Mon 09:10:32 AM 34.1175 -98.2997 321° Northwest 368 423 40,000  Level Fort Worth Center
Mon 09:11:34 AM 34.1992 -98.3775 322° Northwest 369 425 40,000  Level Fort Worth Center
Mon 09:12:36 AM 34.2789 -98.4558 321° Northwest 369 425 40,000  Level Fort Worth Center
Mon 09:13:38 AM 34.3617 -98.5361 321° Northwest 370 426 40,000  Level Fort Worth Center
Mon 09:14:40 AM 34.4422 -98.6136 322° Northwest 370 426 40,000  Level Fort Worth Center
Mon 09:15:42 AM 34.5233 -98.6936 321° Northwest 370 426 40,000  Level Fort Worth Center
Mon 09:16:44 AM 34.6044 -98.7728 321° Northwest 370 426 40,000  Level Fort Worth Center
Mon 09:17:46 AM 34.7014 -98.8694 321° Northwest 373 429 40,000  Level Fort Worth Center
Mon 09:19:50 AM 34.8636 -99.0319 321° Northwest 374 430 40,000  Level Kansas City Center
Mon 09:20:47 AM 34.9447 -99.1139 320° Northwest 372 428 40,000  Level Albuquerque Center
Mon 09:21:48 AM 35.0272 -99.1944 321° Northwest 374 430 40,000  Level Albuquerque Center
Mon 09:22:56 AM 35.1100 -99.2772 321° Northwest 380 437 40,000  Level Fort Worth Center
Mon 09:23:58 AM 35.1947 -99.3606 321° Northwest 380 437 40,000  Level Fort Worth Center
Mon 09:24:51 AM 35.2728 -99.4397 320° Northwest 378 435 40,000  Level Albuquerque Center
Mon 09:25:52 AM 35.3547 -99.5233 320° Northwest 378 435 40,000  Level Albuquerque Center
Mon 09:26:53 AM 35.4361 -99.6047 321° Northwest 378 435 40,000  Level Albuquerque Center
Mon 09:27:54 AM 35.5178 -99.6875 320° Northwest 378 435 40,000  Level Albuquerque Center
Mon 09:28:55 AM 35.5994 -99.7697 321° Northwest 378 435 40,000  Level Albuquerque Center
Mon 09:30:07 AM 35.6969 -99.8697 320° Northwest 378 435 40,000  Level Kansas City Center
Mon 09:31:09 AM 35.7781 -99.9531 320° Northwest 378 435 40,000  Level Kansas City Center
Mon 09:32:10 AM 35.8594 -100.0369 320° Northwest 378 435 40,000  Level Kansas City Center
Mon 09:33:13 AM 35.9403 -100.1211 320° Northwest 378 435 40,000  Level Kansas City Center
Mon 09:34:14 AM 36.0228 -100.2053 320° Northwest 379 436 40,000  Level Kansas City Center
Mon 09:35:15 AM 36.1053 -100.2911 320° Northwest 382 440 40,000  Level Kansas City Center
Mon 09:36:18 AM 36.2067 -100.3936 321° Northwest 385 443 40,000  Level Kansas City Center
Mon 09:37:18 AM 36.2892 -100.4789 320° Northwest 389 448 40,000  Level Kansas City Center
Mon 09:38:20 AM 36.3717 -100.5633 321° Northwest 387 445 40,000  Level Kansas City Center
Mon 09:39:21 AM 36.4578 -100.6539 320° Northwest 387 445 40,000  Level Kansas City Center
Mon 09:40:24 AM 36.5344 -100.7358 319° Northwest 384 442 40,000  Level Kansas City Center
Mon 09:41:25 AM 36.6250 -100.8328 319° Northwest 384 442 40,000  Level Kansas City Center
Mon 09:42:28 AM 36.7033 -100.9150 320° Northwest 383 441 40,000  Level Kansas City Center
Mon 09:43:29 AM 36.7939 -101.0092 320° Northwest 383 441 40,000  Level Kansas City Center
Mon 09:44:32 AM 36.8731 -101.0944 319° Northwest 386 444 40,000  Level Kansas City Center
Mon 09:45:34 AM 36.9519 -101.1797 319° Northwest 386 444 40,000  Level Kansas City Center
Mon 09:46:35 AM 37.0444 -101.2772 320° Northwest 387 445 40,000  Level Kansas City Center
Mon 09:47:38 AM 37.1231 -101.3619 319° Northwest 387 445 40,000  Level Kansas City Center
Mon 09:48:40 AM 37.2156 -101.4619 319° Northwest 387 445 40,000  Level Kansas City Center
Mon 09:49:41 AM 37.2936 -101.5461 319° Northwest 387 445 40,000  Level Kansas City Center
Mon 09:50:44 AM 37.3847 -101.6447 319° Northwest 387 445 40,000  Level Kansas City Center
Mon 09:51:45 AM 37.4617 -101.7294 319° Northwest 386 444 40,000  Level Kansas City Center
Mon 09:52:46 AM 37.5378 -101.8111 320° Northwest 379 436 40,000  Level Kansas City Center
Mon 09:53:50 AM 37.6283 -101.9111 319° Northwest 380 437 40,000  Level Kansas City Center
Mon 09:54:51 AM 37.7056 -101.9939 320° Northwest 380 437 40,000  Level Kansas City Center
Mon 09:55:53 AM 37.7956 -102.0922 319° Northwest 380 437 40,000 -350 Level Kansas City Center
Mon 09:56:34 AM 37.8469 -102.1519 317° Northwest 383 441 39,400 -1,000 Descending Denver Center
Mon 09:57:35 AM 37.9281 -102.2644 312° West 385 443 38,300 -1,024 Descending Denver Center
Mon 09:58:37 AM 37.9978 -102.3572 314° West 381 438 37,300 -1,073 Descending Denver Center
Mon 09:59:38 AM 38.0667 -102.4569 311° West 386 444 36,100 -1,131 Descending Denver Center
Mon 10:00:39 AM 38.1525 -102.5700 314° West 396 456 35,000 -976 Descending Denver Center
Mon 10:01:41 AM 38.2197 -102.6600 314° West 373 429 34,100 -976 Descending Denver Center
Mon 10:02:42 AM 38.2981 -102.7717 312° West 378 435 33,000 -984 Descending Denver Center
Mon 10:03:43 AM 38.3692 -102.8681 313° West 389 448 32,100 -488 Descending Denver Center
Mon 10:04:45 AM 38.4394 -102.9664 312° West 390 449 32,000 -49 Descending Denver Center
Mon 10:05:46 AM 38.5225 -103.0803 313° West 389 448 32,000  Level Denver Center
Mon 10:06:47 AM 38.5911 -103.1758 313° West 390 449 32,000 -439 Level Denver Center
Mon 10:07:49 AM 38.6653 -103.2747 314° West 389 448 31,100 -878 Descending Denver Center
Mon 10:08:50 AM 38.7361 -103.3753 312° West 384 442 30,200 -984 Descending Denver Center
Mon 10:09:51 AM 38.7972 -103.4669 311° West 379 436 29,100 -1,171 Descending Denver Center
Mon 10:10:53 AM 38.8825 -103.5850 313° West 353 406 27,800 -1,122 Descending Denver Center
Mon 10:11:54 AM 38.9456 -103.6769 311° West 348 400 26,800 -885 Descending Denver Center
Mon 10:12:55 AM 38.9958 -103.7483 312° West 342 394 26,000 -1,512 Descending Denver Center
Mon 10:13:57 AM 39.0689 -103.8528 312° West 332 382 23,700 -2,098 Descending Denver Center
Mon 10:14:58 AM 39.1253 -103.9344 312° West 312 359 21,700 -1,902 Descending Denver Center
Mon 10:16:00 AM 39.1789 -104.0100 312° West 293 337 19,800 -1,659 Descending Denver Center
Mon 10:17:01 AM 39.2314 -104.0850 312° West 284 327 18,300 -1,171 Descending Denver Center
Mon 10:18:03 AM 39.2739 -104.1797 300° West 261 300 17,400 -1,122 Descending Denver Center
Mon 10:19:04 AM 39.2969 -104.2600 290° West 245 282 16,000 -1,111 Descending Denver Center
Mon 10:20:18 AM 39.3297 -104.3297 301° West 230 265 14,900 -1,103 Descending Denver Center
Mon 10:21:20 AM 39.3672 -104.4139 300° West 220 253 13,500 -1,258 Descending Denver Center
Mon 10:22:22 AM 39.4011 -104.4894 300° West 224 258 12,300 -1,122 Descending Denver Center
Mon 10:23:23 AM 39.4303 -104.5575 299° West 220 253 11,200 -732 Descending Denver Center
Mon 10:24:25 AM 39.4681 -104.6161 310° West 219 252 10,800 -581 Descending Denver Center
Mon 10:25:27 AM 39.5267 -104.6528 334° Northwest 221 254 10,000 -390 Descending Denver Center
Mon 10:26:28 AM 39.5869 -104.6636 352° North 227 261 10,000 -439 Level Denver Center
Mon 10:27:30 AM 39.6478 -104.6631 360° North 221 254 9,100 -1,016 Descending Denver Center
Mon 10:28:32 AM 39.7067 -104.6619 North 201 231 7,900 -1,065 Descending Denver Center
Mon 10:29:34 AM 39.7561 -104.6614 360° North 182 209 6,900 -919 Descending Denver Center
Mon 10:30:36 AM 39.7983 -104.6617 360° North 142 163 6,000 -732 Descending Denver Center
Mon 10:31:37 AM 39.8331 -104.6608 North 131 151 5,400 -590 Descending Denver Center
Mon 10:33:00 AM 39.8500 -104.6667 North  Level FlightAware Approximate
Mon 10:40:00 AM 39.8617 -104.6732 337° Northwest  Level Estimated
Mon 10:41:00 AM 39.8617 -104.6732 North  Level Estimated

Login

Don't have an account? Register now (free) for customized features, flight alerts, and more!